Time;durP1;ratioP1;P1;durP2;ratioP2;P2;SDS_P1;SDS_P2;PMS_P1;PMS_P2;Temp;Humidity;BMP_temperature;BMP_pressure;BME280_temperature;BME280_humidity;BME280_pressure;Samples;Min_cycle;Max_cycle;Signal;HPM_P1;HPM_P2
2023/09/14 00:01:32;;;;;;;;;11.50;8.50;;;;;21.38;51.71;101576.25;5062436;28;45408;-67
2023/09/14 00:03:57;;;;;;;;;18.75;16.00;;;;;21.37;51.26;101580.72;5062559;28;45838;-67
2023/09/14 00:06:23;;;;;;;;;14.25;14.25;;;;;21.39;51.84;101584.19;5062441;28;45276;-66
2023/09/14 00:08:48;;;;;;;;;16.50;15.50;;;;;21.38;51.16;101581.59;5067197;28;46094;-67
2023/09/14 00:11:13;;;;;;;;;13.50;13.50;;;;;21.40;51.91;101582.38;5077984;28;45185;-66
2023/09/14 00:13:39;;;;;;;;;16.25;12.00;;;;;21.38;51.47;101573.56;5062821;28;45513;-66
2023/09/14 00:16:04;;;;;;;;;15.50;13.00;;;;;21.36;51.73;101573.63;5062138;28;45395;-66
2023/09/14 00:18:29;;;;;;;;;14.75;13.50;;;;;21.37;51.36;101575.38;5061131;28;50364;-66
2023/09/14 00:20:57;;;;;;;;;13.25;13.25;;;;;21.37;51.63;101577.16;5062211;28;45818;-66
2023/09/14 00:23:22;;;;;;;;;14.25;13.25;;;;;21.30;52.09;101557.03;5062567;28;45399;-66
2023/09/14 00:25:48;;;;;;;;;17.50;15.00;;;;;21.41;51.42;101570.75;5061974;28;45446;-66
2023/09/14 00:28:14;;;;;;;;;16.75;15.25;;;;;21.39;51.73;101576.16;5060776;28;45933;-68
2023/09/14 00:30:39;;;;;;;;;19.00;13.75;;;;;21.38;51.88;101571.78;5077795;28;45311;-66
2023/09/14 00:33:04;;;;;;;;;16.25;15.00;;;;;21.39;52.15;101568.13;5061924;28;45343;-67
2023/09/14 00:35:30;;;;;;;;;15.00;13.50;;;;;21.38;52.21;101569.09;5062135;28;45355;-67
2023/09/14 00:37:56;;;;;;;;;14.75;14.75;;;;;21.28;52.27;101541.03;5062038;28;46431;-66
2023/09/14 00:40:21;;;;;;;;;13.75;13.00;;;;;21.35;51.91;101566.56;5061725;28;45262;-66
2023/09/14 00:42:48;;;;;;;;;15.00;13.75;;;;;21.35;51.80;101569.22;5062226;28;46004;-66
2023/09/14 00:45:16;;;;;;;;;15.75;12.25;;;;;21.38;51.66;101574.44;5061864;28;45508;-66
2023/09/14 00:47:51;;;;;;;;;17.50;13.25;;;;;21.35;51.79;101571.91;5061618;28;46534;-66
2023/09/14 00:50:17;;;;;;;;;16.50;14.75;;;;;21.36;51.71;101572.78;5061717;28;45347;-66
2023/09/14 00:52:54;;;;;;;;;13.75;13.25;;;;;21.35;52.11;101574.56;5062187;28;45300;-66
2023/09/14 00:55:20;;;;;;;;;19.75;16.50;;;;;21.35;52.02;101569.22;5054889;28;45248;-67
2023/09/14 00:57:49;;;;;;;;;14.50;14.00;;;;;21.35;51.76;101573.72;5041670;28;45232;-67
2023/09/14 01:00:18;;;;;;;;;14.25;13.25;;;;;21.32;52.17;101569.38;5040335;28;45818;-66
2023/09/14 01:02:44;;;;;;;;;12.25;12.25;;;;;21.33;52.14;101573.75;5040013;28;45329;-66
2023/09/14 01:05:12;;;;;;;;;15.50;13.50;;;;;21.34;52.36;101580.00;5041271;28;45448;-66
2023/09/14 01:07:39;;;;;;;;;18.25;15.25;;;;;21.32;51.83;101582.75;5049510;28;46561;-66
2023/09/14 01:10:05;;;;;;;;;17.00;14.50;;;;;21.27;51.72;101571.41;5062207;27;45348;-66
2023/09/14 01:12:32;;;;;;;;;14.00;13.50;;;;;21.31;51.83;101580.13;5061864;28;45291;-66
2023/09/14 01:15:10;;;;;;;;;14.50;13.50;;;;;21.29;51.94;101574.00;5060131;28;45528;-66
2023/09/14 01:17:42;;;;;;;;;14.25;14.00;;;;;21.29;52.21;101584.69;5060015;28;45313;-66
2023/09/14 01:20:31;;;;;;;;;14.50;13.00;;;;;21.25;52.42;101583.97;5060113;28;45345;-66
2023/09/14 01:23:18;;;;;;;;;17.75;15.25;;;;;21.24;51.89;101592.91;5061472;28;45446;-67
2023/09/14 01:25:46;;;;;;;;;15.00;13.50;;;;;21.22;51.92;101586.75;5061029;28;45646;-67
2023/09/14 01:28:13;;;;;;;;;15.00;14.00;;;;;21.18;52.30;101577.16;5061198;28;46006;-66
2023/09/14 01:30:40;;;;;;;;;16.25;15.75;;;;;21.19;51.88;101584.25;5061078;28;45322;-66
2023/09/14 01:33:08;;;;;;;;;20.00;17.50;;;;;21.16;52.45;101577.22;5059359;28;45264;-66
2023/09/14 01:35:41;;;;;;;;;16.50;15.50;;;;;21.15;52.29;101577.31;5061033;28;45523;-66
2023/09/14 01:38:07;;;;;;;;;18.00;15.50;;;;;21.11;52.31;101572.09;5059410;28;45654;-66
2023/09/14 01:40:36;;;;;;;;;16.25;15.25;;;;;21.09;52.51;101567.75;5060323;28;45241;-66
2023/09/14 01:43:05;;;;;;;;;17.00;16.25;;;;;21.06;52.51;101562.56;5059860;28;45306;-66
2023/09/14 01:45:31;;;;;;;;;13.75;12.75;;;;;21.06;52.45;101570.56;5060878;28;45346;-66
2023/09/14 01:47:56;;;;;;;;;15.50;14.00;;;;;21.04;52.40;101576.00;5060555;28;46244;-66
2023/09/14 01:50:22;;;;;;;;;13.25;12.00;;;;;21.03;52.26;101571.59;5060901;28;45264;-66
2023/09/14 01:52:49;;;;;;;;;16.50;14.00;;;;;21.03;52.41;101576.94;5061048;28;45325;-66
2023/09/14 01:55:16;;;;;;;;;19.25;18.00;;;;;21.03;52.20;101573.38;5060550;28;46211;-66
2023/09/14 01:57:41;;;;;;;;;16.75;15.25;;;;;20.93;52.37;101563.13;5058953;28;46950;-66
2023/09/14 02:00:08;;;;;;;;;15.75;15.75;;;;;21.00;52.40;101576.19;5060682;28;45505;-66
2023/09/14 02:02:33;;;;;;;;;15.25;13.50;;;;;20.96;52.45;101574.59;5060692;28;45375;-66
2023/09/14 02:04:59;;;;;;;;;15.25;13.75;;;;;20.98;52.37;101580.72;5059150;28;45278;-66
2023/09/14 02:07:24;;;;;;;;;22.00;19.50;;;;;20.94;52.32;101575.53;5062366;28;45291;-66
2023/09/14 02:09:51;;;;;;;;;18.50;15.75;;;;;20.94;52.40;101577.31;5061313;28;46258;-66
2023/09/14 02:12:17;;;;;;;;;17.25;16.00;;;;;20.92;52.49;101579.22;5060750;28;45236;-66
2023/09/14 02:14:42;;;;;;;;;16.25;16.25;;;;;20.90;52.05;101578.41;5075991;28;45969;-66
2023/09/14 02:17:07;;;;;;;;;16.50;15.25;;;;;20.89;52.45;101577.56;5058772;28;46113;-66
2023/09/14 02:19:33;;;;;;;;;21.50;19.25;;;;;20.87;52.21;101566.06;5059049;28;45210;-66
2023/09/14 02:21:58;;;;;;;;;16.75;14.00;;;;;20.87;52.68;101567.88;5060297;28;48320;-66
2023/09/14 02:24:23;;;;;;;;;19.50;17.25;;;;;20.86;52.82;101561.66;5059952;28;57493;-66
2023/09/14 02:26:51;;;;;;;;;18.00;15.50;;;;;20.85;52.74;101567.06;5058616;28;57235;-66
2023/09/14 02:29:16;;;;;;;;;17.25;16.00;;;;;20.83;52.89;101569.81;5060242;28;45325;-66
2023/09/14 02:31:42;;;;;;;;;17.00;13.75;;;;;20.82;52.83;101572.53;5060165;28;45473;-66
2023/09/14 02:34:07;;;;;;;;;17.75;17.25;;;;;20.78;52.72;101564.66;5058889;28;45537;-66
2023/09/14 02:36:33;;;;;;;;;16.25;15.00;;;;;20.78;52.38;101566.47;5060250;28;45492;-66
2023/09/14 02:38:58;;;;;;;;;15.75;14.00;;;;;20.76;52.49;101554.97;5058910;28;45376;-66
2023/09/14 02:41:24;;;;;;;;;18.50;17.50;;;;;20.74;52.37;101563.06;5060211;28;45311;-66
2023/09/14 02:43:49;;;;;;;;;19.25;19.25;;;;;20.73;52.31;101561.31;5059711;28;51259;-67
2023/09/14 02:46:14;;;;;;;;;16.00;16.00;;;;;20.71;52.37;101554.31;5059977;28;45248;-66
2023/09/14 02:48:40;;;;;;;;;19.25;16.75;;;;;20.71;52.46;101567.66;5058577;28;45826;-66
2023/09/14 02:51:05;;;;;;;;;13.75;13.00;;;;;20.70;52.35;101556.06;5059013;28;47182;-66
2023/09/14 02:53:31;;;;;;;;;17.25;17.00;;;;;20.68;52.76;101555.28;5059920;28;45356;-66
2023/09/14 02:55:56;;;;;;;;;18.50;18.00;;;;;20.66;52.82;101557.16;5059445;28;55221;-66
2023/09/14 02:58:22;;;;;;;;;16.50;14.75;;;;;20.63;52.39;101549.28;5059694;28;48441;-66
2023/09/14 03:00:48;;;;;;;;;14.75;14.75;;;;;20.59;53.03;101548.56;5059961;28;45282;-66
2023/09/14 03:03:13;;;;;;;;;21.50;14.75;;;;;20.63;52.99;101555.47;5058387;28;45494;-66
2023/09/14 03:05:38;;;;;;;;;19.00;15.75;;;;;20.62;53.07;101552.88;5059710;28;46411;-66
2023/09/14 03:08:04;;;;;;;;;16.00;13.75;;;;;20.59;53.05;101553.00;5063960;28;45362;-66
2023/09/14 03:10:29;;;;;;;;;20.50;18.25;;;;;20.60;52.81;101554.75;5059878;28;45534;-66
2023/09/14 03:12:55;;;;;;;;;15.25;15.25;;;;;20.60;52.63;101552.06;5058405;28;45459;-66
2023/09/14 03:15:20;;;;;;;;;18.75;18.25;;;;;20.59;53.21;101551.22;5059708;28;45332;-67
2023/09/14 03:17:45;;;;;;;;;16.50;16.00;;;;;20.56;53.15;101539.81;5075017;28;45303;-66
2023/09/14 03:20:11;;;;;;;;;16.75;16.00;;;;;20.58;53.17;101553.97;5060014;28;45482;-67
2023/09/14 03:22:36;;;;;;;;;17.00;14.50;;;;;20.56;53.03;101551.34;5059527;28;45517;-66
2023/09/14 03:25:02;;;;;;;;;19.00;17.00;;;;;20.53;52.96;101545.28;5059420;28;45433;-66
2023/09/14 03:27:28;;;;;;;;;15.75;15.75;;;;;20.57;53.20;101549.56;5059453;28;45340;-67
2023/09/14 03:29:53;;;;;;;;;11.00;9.50;;;;;20.57;52.60;101552.22;5059910;28;45493;-67
2023/09/14 03:32:18;;;;;;;;;9.50;9.50;;;;;20.55;53.33;101543.41;5059359;28;45395;-67
2023/09/14 03:34:44;;;;;;;;;14.75;13.00;;;;;20.54;53.00;101542.53;5059593;28;46036;-66
2023/09/14 03:37:10;;;;;;;;;15.50;15.50;;;;;20.52;52.93;101543.53;5059424;28;45255;-67
2023/09/14 03:39:35;;;;;;;;;14.50;13.50;;;;;20.51;53.10;101542.66;5059561;28;45146;-67
2023/09/14 03:42:00;;;;;;;;;14.50;14.00;;;;;20.51;53.19;101539.13;5059116;28;45205;-66
2023/09/14 03:44:25;;;;;;;;;16.75;16.75;;;;;20.48;52.63;101534.81;5059475;28;45429;-66
2023/09/14 03:46:51;;;;;;;;;13.50;13.50;;;;;20.48;53.32;101536.59;5058660;28;56938;-66
2023/09/14 03:49:16;;;;;;;;;17.50;16.25;;;;;20.48;53.05;101539.25;5058265;28;45229;-66
2023/09/14 03:51:41;;;;;;;;;17.50;15.75;;;;;20.45;53.19;101537.59;5059069;28;50984;-67
2023/09/14 03:54:08;;;;;;;;;18.25;16.25;;;;;20.45;53.04;101533.13;5057619;28;54324;-66
2023/09/14 03:56:33;;;;;;;;;15.75;15.00;;;;;20.45;52.84;101533.13;5059165;28;45178;-67
2023/09/14 03:58:59;;;;;;;;;21.75;20.25;;;;;20.44;52.93;101534.06;5059304;28;45978;-67
2023/09/14 04:01:25;;;;;;;;;15.25;15.00;;;;;20.41;53.02;101525.31;5059106;28;45299;-66
2023/09/14 04:03:50;;;;;;;;;19.00;19.00;;;;;20.39;53.39;101519.16;5061771;28;45425;-66
2023/09/14 04:06:15;;;;;;;;;21.00;19.50;;;;;20.38;52.98;101526.31;5062543;28;45497;-66
2023/09/14 04:08:41;;;;;;;;;15.25;15.25;;;;;20.39;53.46;101520.06;5068419;28;45924;-66
2023/09/14 04:11:06;;;;;;;;;18.75;17.50;;;;;20.35;53.56;101513.13;5062426;28;45264;-66
2023/09/14 04:13:33;;;;;;;;;17.50;17.50;;;;;20.36;53.48;101517.50;5062450;28;46316;-66
2023/09/14 04:16:01;;;;;;;;;19.75;18.00;;;;;20.35;53.36;101520.25;5062263;28;45367;-66
2023/09/14 04:18:27;;;;;;;;;16.50;14.50;;;;;20.34;52.91;101521.16;5062522;28;45271;-66
2023/09/14 04:20:53;;;;;;;;;16.50;14.50;;;;;20.28;52.86;101514.31;5062161;28;45298;-66
2023/09/14 04:23:19;;;;;;;;;11.75;10.75;;;;;20.27;53.16;101516.09;5062227;28;45242;-67
2023/09/14 04:25:46;;;;;;;;;15.75;15.50;;;;;20.28;53.00;101515.16;5062039;28;45355;-66
2023/09/14 04:28:13;;;;;;;;;18.00;17.25;;;;;20.25;53.67;101517.97;5062336;28;45315;-66
2023/09/14 04:30:44;;;;;;;;;14.50;12.00;;;;;20.26;53.06;101525.06;5061944;28;45449;-66
2023/09/14 04:33:14;;;;;;;;;18.75;16.00;;;;;20.25;53.50;101527.75;5062179;28;45270;-67
2023/09/14 04:35:40;;;;;;;;;16.75;13.75;;;;;20.19;53.62;101525.34;5061880;28;45331;-66
2023/09/14 04:38:08;;;;;;;;;16.75;13.75;;;;;20.25;53.11;101533.09;5060491;28;45538;-66
2023/09/14 04:40:41;;;;;;;;;14.50;14.50;;;;;20.23;52.97;101532.31;5062039;28;45238;-66
2023/09/14 04:43:06;;;;;;;;;19.00;16.25;;;;;20.22;53.24;101530.56;5061817;28;46455;-66
2023/09/14 04:45:32;;;;;;;;;17.50;16.75;;;;;20.21;53.67;101532.34;5060391;28;45252;-67
2023/09/14 04:47:59;;;;;;;;;19.25;16.00;;;;;20.19;53.22;101528.00;5061851;28;45285;-66
2023/09/14 04:50:24;;;;;;;;;20.25;18.50;;;;;20.16;53.67;101526.34;5077513;28;45257;-66
2023/09/14 04:52:50;;;;;;;;;33.25;30.75;;;;;20.18;53.79;101534.31;5061685;28;46206;-66
2023/09/14 04:55:15;;;;;;;;;19.50;14.75;;;;;20.16;53.64;101528.16;5060225;28;45450;-66
2023/09/14 04:57:41;;;;;;;;;14.50;14.50;;;;;20.14;53.62;101528.22;5061970;28;45307;-66
2023/09/14 05:00:09;;;;;;;;;18.75;15.00;;;;;20.16;53.23;101534.34;5061690;28;45336;-66
2023/09/14 05:02:35;;;;;;;;;21.75;20.00;;;;;20.13;53.13;101542.50;5061428;28;45219;-66
2023/09/14 05:05:06;;;;;;;;;22.25;20.00;;;;;20.12;53.76;101544.31;5061311;28;45301;-67
2023/09/14 05:07:31;;;;;;;;;23.00;19.25;;;;;20.11;53.51;101541.69;5064762;28;45318;-66
2023/09/14 05:09:56;;;;;;;;;23.25;21.75;;;;;20.09;53.47;101543.56;5061644;27;45478;-66
2023/09/14 05:12:22;;;;;;;;;20.50;19.75;;;;;20.11;53.30;101547.03;5059615;28;62774;-66
2023/09/14 05:14:47;;;;;;;;;23.00;19.00;;;;;20.10;53.19;101554.16;5060479;28;47019;-66
2023/09/14 05:17:13;;;;;;;;;21.00;19.25;;;;;20.07;53.62;101554.28;5061420;28;45327;-66
2023/09/14 05:19:42;;;;;;;;;19.25;18.50;;;;;20.07;53.68;101548.09;5061257;28;45543;-66
2023/09/14 05:22:08;;;;;;;;;26.75;22.75;;;;;20.04;53.81;101549.09;5061644;28;45219;-66
2023/09/14 05:24:33;;;;;;;;;19.50;19.25;;;;;20.06;53.76;101549.91;5061490;28;45232;-66
2023/09/14 05:27:00;;;;;;;;;31.00;26.50;;;;;20.04;53.25;101551.75;5061125;28;45335;-66
2023/09/14 05:29:26;;;;;;;;;26.50;23.00;;;;;20.01;53.57;101545.66;5061164;28;45308;-66
2023/09/14 05:31:52;;;;;;;;;22.00;19.25;;;;;20.00;53.33;101552.81;5059555;28;47889;-66
2023/09/14 05:34:17;;;;;;;;;26.50;21.75;;;;;20.01;53.86;101556.34;5061074;28;45342;-66
2023/09/14 05:36:43;;;;;;;;;29.75;26.25;;;;;19.96;53.68;101544.06;5061002;28;45389;-66
2023/09/14 05:39:08;;;;;;;;;28.00;22.50;;;;;19.99;53.38;101551.06;5060907;28;45252;-66
2023/09/14 05:41:34;;;;;;;;;39.75;34.25;;;;;19.97;53.66;101555.59;5059508;28;46870;-66
2023/09/14 05:43:59;;;;;;;;;55.50;40.25;;;;;19.90;53.22;101549.66;5061075;28;45198;-66
2023/09/14 05:46:25;;;;;;;;;32.50;29.75;;;;;19.95;53.58;101554.81;5076324;28;45460;-66
2023/09/14 05:48:50;;;;;;;;;29.00;25.00;;;;;19.93;53.79;101557.50;5058789;28;49383;-66
2023/09/14 05:51:15;;;;;;;;;27.00;23.50;;;;;19.97;53.88;101563.59;5060944;28;45249;-66
2023/09/14 05:53:41;;;;;;;;;28.50;24.00;;;;;19.92;53.48;101555.81;5059123;28;53727;-65
2023/09/14 05:56:06;;;;;;;;;24.25;22.00;;;;;19.97;53.96;101561.81;5060961;28;45378;-65
2023/09/14 05:58:31;;;;;;;;;30.50;29.25;;;;;19.97;53.95;101556.47;5060800;28;45170;-65
2023/09/14 06:01:00;;;;;;;;;27.75;25.25;;;;;19.96;53.66;101557.41;5059192;28;45624;-65
2023/09/14 06:03:25;;;;;;;;;23.75;20.50;;;;;20.02;54.00;101563.41;5060814;28;45386;-65
2023/09/14 06:05:50;;;;;;;;;25.50;24.75;;;;;20.02;53.81;101568.75;5060711;28;45424;-65
2023/09/14 06:08:16;;;;;;;;;29.75;26.25;;;;;19.99;54.35;101559.09;5065911;28;45461;-65
2023/09/14 06:10:41;;;;;;;;;22.50;22.50;;;;;20.03;54.31;101570.50;5060383;28;45429;-65
2023/09/14 06:13:06;;;;;;;;;24.50;23.00;;;;;20.06;54.07;101570.34;5060409;28;45335;-65
2023/09/14 06:15:32;;;;;;;;;26.25;22.00;;;;;20.05;54.20;101566.84;5060499;28;45306;-65
2023/09/14 06:17:57;;;;;;;;;25.50;22.25;;;;;20.07;54.07;101562.28;5060457;28;45326;-65
2023/09/14 06:20:23;;;;;;;;;27.50;24.75;;;;;20.08;53.61;101561.34;5060784;28;45283;-65
2023/09/14 06:22:48;;;;;;;;;33.00;31.00;;;;;20.10;53.96;101564.84;5060338;28;45396;-65
2023/09/14 06:25:14;;;;;;;;;31.25;24.00;;;;;20.11;53.78;101563.91;5060465;28;45350;-65
2023/09/14 06:27:39;;;;;;;;;21.00;20.50;;;;;20.13;53.70;101579.84;5058847;28;45610;-65
2023/09/14 06:30:06;;;;;;;;;24.75;20.75;;;;;20.12;53.60;101578.13;5060295;28;45422;-65
2023/09/14 06:32:31;;;;;;;;;22.50;20.75;;;;;20.14;53.77;101582.44;5060031;28;45220;-65
2023/09/14 06:34:56;;;;;;;;;24.75;21.50;;;;;20.11;54.06;101571.91;5060248;28;45220;-65
2023/09/14 06:37:21;;;;;;;;;20.00;17.50;;;;;20.14;53.89;101574.44;5060227;28;45213;-65
2023/09/14 06:39:47;;;;;;;;;20.75;18.50;;;;;20.16;54.17;101576.19;5060331;28;46273;-65
2023/09/14 06:42:12;;;;;;;;;25.25;21.25;;;;;20.14;54.09;101576.25;5059902;28;45150;-65
2023/09/14 06:44:38;;;;;;;;;22.75;21.75;;;;;20.15;53.90;101572.66;5059852;28;45399;-65
2023/09/14 06:47:03;;;;;;;;;23.50;21.25;;;;;20.18;54.20;101579.66;5059740;28;45592;-65
2023/09/14 06:49:28;;;;;;;;;27.75;21.25;;;;;20.17;53.89;101577.94;5059991;28;45208;-66
2023/09/14 06:51:54;;;;;;;;;27.00;22.00;;;;;20.18;54.26;101579.66;5059964;28;45229;-65
2023/09/14 06:54:19;;;;;;;;;23.75;18.25;;;;;20.21;54.28;101585.72;5059979;28;45457;-65
2023/09/14 06:56:44;;;;;;;;;24.00;22.25;;;;;20.22;53.83;101594.63;5059792;28;45288;-65
2023/09/14 06:59:10;;;;;;;;;21.25;18.50;;;;;20.21;53.68;101593.72;5059545;28;57157;-66
2023/09/14 07:01:35;;;;;;;;;20.50;17.75;;;;;20.24;54.26;101588.28;5059556;28;45276;-65
2023/09/14 07:04:01;;;;;;;;;20.75;20.75;;;;;20.25;54.35;101586.47;5060069;28;45315;-65
2023/09/14 07:06:26;;;;;;;;;27.00;20.50;;;;;20.26;53.72;101586.44;5059583;28;45429;-65
2023/09/14 07:08:51;;;;;;;;;28.25;21.50;;;;;20.26;53.87;101581.09;5061352;28;45429;-65
2023/09/14 07:11:17;;;;;;;;;23.25;21.50;;;;;20.26;54.30;101577.53;5074983;28;48772;-65
2023/09/14 07:13:42;;;;;;;;;24.00;23.00;;;;;20.30;54.32;101592.47;5058707;28;45368;-65
2023/09/14 07:16:08;;;;;;;;;21.50;19.00;;;;;20.30;54.12;101584.47;5059404;28;45304;-65
2023/09/14 07:18:34;;;;;;;;;22.50;21.00;;;;;20.32;54.31;101585.28;5058488;28;48086;-65
2023/09/14 07:21:03;;;;;;;;;23.75;21.00;;;;;20.34;54.17;101590.56;5059576;28;45276;-65
2023/09/14 07:23:30;;;;;;;;;26.25;23.00;;;;;20.35;54.30;101587.84;5059723;28;45303;-66
2023/09/14 07:25:55;;;;;;;;;21.50;19.00;;;;;20.36;53.78;101597.56;5059265;28;45350;-65
2023/09/14 07:28:21;;;;;;;;;27.75;20.75;;;;;20.38;54.02;101587.69;5058095;28;47259;-65
2023/09/14 07:30:48;;;;;;;;;20.75;19.50;;;;;20.38;54.60;101590.38;5059360;28;45284;-65
2023/09/14 07:33:15;;;;;;;;;21.75;18.75;;;;;20.42;54.18;101591.97;5059678;28;45280;-65
2023/09/14 07:35:40;;;;;;;;;21.00;18.50;;;;;20.44;53.90;101594.59;5059192;28;45416;-65
2023/09/14 07:38:08;;;;;;;;;25.75;24.25;;;;;20.46;53.81;101592.72;5061165;28;45253;-65
2023/09/14 07:40:34;;;;;;;;;30.75;27.75;;;;;20.47;53.83;101599.78;5061595;28;45847;-65
2023/09/14 07:42:59;;;;;;;;;31.75;30.25;;;;;20.46;54.10;101590.03;5063387;28;45205;-65
2023/09/14 07:45:25;;;;;;;;;22.00;22.00;;;;;20.51;53.85;101600.53;5062655;28;45297;-65
2023/09/14 07:47:50;;;;;;;;;21.75;20.75;;;;;20.49;53.78;101594.38;5062290;28;52412;-65
2023/09/14 07:50:16;;;;;;;;;23.50;20.25;;;;;20.52;54.33;101599.59;5062761;28;45413;-65
2023/09/14 07:52:41;;;;;;;;;19.75;16.00;;;;;20.53;54.11;101590.69;5063147;28;45295;-65
2023/09/14 07:55:07;;;;;;;;;23.75;23.75;;;;;20.53;54.36;101590.69;5062267;28;45440;-65
2023/09/14 07:57:32;;;;;;;;;20.75;19.50;;;;;20.55;54.04;101604.81;5062573;28;47247;-64
2023/09/14 07:59:57;;;;;;;;;23.50;21.25;;;;;20.53;54.03;101590.69;5062648;28;45299;-64
2023/09/14 08:02:23;;;;;;;;;22.75;20.75;;;;;20.58;54.60;101610.88;5062746;28;45382;-64
2023/09/14 08:04:49;;;;;;;;;18.50;18.00;;;;;20.59;54.25;101606.41;5062397;28;45315;-65
2023/09/14 08:07:15;;;;;;;;;22.50;21.25;;;;;20.60;54.18;101608.16;5062970;28;48664;-65
2023/09/14 08:09:41;;;;;;;;;20.75;19.00;;;;;20.63;54.11;101613.38;5066994;27;45202;-65
2023/09/14 08:12:06;;;;;;;;;22.75;21.00;;;;;20.63;54.10;101611.56;5062662;28;45316;-65
2023/09/14 08:14:31;;;;;;;;;24.50;21.25;;;;;20.66;54.05;101613.22;5062134;28;45226;-65
2023/09/14 08:16:57;;;;;;;;;22.75;20.50;;;;;20.70;54.35;101611.28;5053947;28;45243;-65
2023/09/14 08:19:22;;;;;;;;;21.50;20.00;;;;;20.73;54.22;101617.41;5042126;28;45311;-65
2023/09/14 08:21:47;;;;;;;;;18.25;16.75;;;;;20.75;54.49;101626.22;5042432;28;45365;-65
2023/09/14 08:24:13;;;;;;;;;61.00;47.50;;;;;20.80;54.08;101626.00;5042199;28;45386;-65
2023/09/14 08:26:38;;;;;;;;;21.50;19.50;;;;;20.83;54.78;101627.69;5039888;28;54028;-65
2023/09/14 08:29:04;;;;;;;;;24.25;22.25;;;;;20.84;54.34;101627.63;5042050;28;45335;-65
2023/09/14 08:31:29;;;;;;;;;24.75;22.50;;;;;20.89;54.84;101622.06;5042156;28;45215;-65
2023/09/14 08:33:55;;;;;;;;;29.00;25.50;;;;;20.94;54.83;101630.75;5041998;28;45343;-65
2023/09/14 08:36:20;;;;;;;;;29.00;25.50;;;;;20.96;54.40;101617.34;5041864;28;45319;-65
2023/09/14 08:38:45;;;;;;;;;24.75;24.25;;;;;21.01;54.38;101623.34;5041959;28;45338;-65
2023/09/14 08:41:20;;;;;;;;;28.50;23.75;;;;;21.07;54.42;101629.28;5040713;28;45478;-65
2023/09/14 08:43:47;;;;;;;;;25.75;25.00;;;;;21.10;54.83;101628.28;5082529;27;45376;-65
2023/09/14 08:46:15;;;;;;;;;28.50;27.00;;;;;21.13;54.14;101624.59;5077149;28;46272;-65
2023/09/14 08:48:42;;;;;;;;;15.75;15.75;;;;;21.19;54.62;101629.69;5061004;28;45239;-65
2023/09/14 08:51:08;;;;;;;;;25.75;24.50;;;;;21.23;54.47;101628.59;5077343;28;45236;-65
2023/09/14 08:53:34;;;;;;;;;25.75;23.00;;;;;21.26;54.55;101629.31;5061615;28;45237;-65
2023/09/14 08:56:01;;;;;;;;;23.50;21.50;;;;;21.32;54.29;101635.31;5061512;28;45490;-65
2023/09/14 08:58:28;;;;;;;;;24.50;22.50;;;;;21.33;54.31;101629.91;5061588;28;45465;-65
2023/09/14 09:00:55;;;;;;;;;27.50;22.50;;;;;21.38;54.44;101637.72;5077534;28;45429;-65
2023/09/14 09:03:20;;;;;;;;;28.00;23.50;;;;;21.42;54.50;101644.66;5061513;28;45434;-65
2023/09/14 09:05:48;;;;;;;;;24.25;21.75;;;;;21.45;54.69;101638.34;5060057;28;47939;-65
2023/09/14 09:08:15;;;;;;;;;22.50;20.00;;;;;21.48;54.56;101640.84;5067293;28;45494;-65
2023/09/14 09:10:42;;;;;;;;;21.00;21.00;;;;;21.51;54.29;101643.38;5061612;28;45390;-65
2023/09/14 09:13:07;;;;;;;;;23.75;21.25;;;;;21.54;54.66;101643.25;5061388;28;45398;-66
2023/09/14 09:15:36;;;;;;;;;28.50;23.00;;;;;21.55;54.58;101631.63;5061099;28;45323;-65
2023/09/14 09:18:06;;;;;;;;;23.25;21.00;;;;;21.55;54.36;101624.47;5061338;28;45280;-65
2023/09/14 09:20:32;;;;;;;;;22.75;20.25;;;;;21.60;53.89;101637.66;5059848;28;45356;-65
2023/09/14 09:23:01;;;;;;;;;24.50;19.25;;;;;21.59;54.18;101628.75;5061163;28;45501;-65
2023/09/14 09:25:29;;;;;;;;;22.00;20.50;;;;;21.62;54.38;101630.41;5060985;28;46089;-65
2023/09/14 09:27:59;;;;;;;;;28.75;21.75;;;;;21.65;54.12;101632.94;5061111;28;45383;-65
2023/09/14 09:30:31;;;;;;;;;21.00;17.75;;;;;21.66;53.95;101634.69;5061258;28;45396;-65
2023/09/14 09:32:57;;;;;;;;;23.25;20.25;;;;;21.67;54.59;101633.75;5061184;28;45533;-65
2023/09/14 09:35:31;;;;;;;;;18.00;17.75;;;;;21.70;54.12;101633.59;5061036;28;46215;-65
2023/09/14 09:38:08;;;;;;;;;20.25;17.50;;;;;21.70;54.13;101625.56;5061197;28;45402;-66
2023/09/14 09:40:34;;;;;;;;;23.25;21.00;;;;;21.74;54.58;101629.81;5060904;28;45348;-65
2023/09/14 09:43:04;;;;;;;;;20.75;18.50;;;;;21.78;54.15;101633.22;5061172;28;45470;-65
2023/09/14 09:45:29;;;;;;;;;18.75;14.50;;;;;21.78;54.26;101627.03;5059470;28;48248;-65
2023/09/14 09:47:54;;;;;;;;;20.25;16.00;;;;;21.81;54.19;101626.88;5061057;28;45223;-65
2023/09/14 09:50:21;;;;;;;;;19.75;18.50;;;;;21.83;53.82;101633.03;5060959;28;45339;-65
2023/09/14 09:52:48;;;;;;;;;21.50;20.00;;;;;21.84;53.93;101619.56;5060362;28;45331;-64
2023/09/14 09:55:21;;;;;;;;;20.75;17.50;;;;;21.86;54.26;101620.38;5056754;28;45435;-65
2023/09/14 09:57:53;;;;;;;;;18.50;17.75;;;;;21.84;54.26;101616.88;5060819;28;45441;-65
2023/09/14 10:00:20;;;;;;;;;20.50;20.00;;;;;21.88;54.02;101617.63;5060404;28;45175;-65
2023/09/14 10:02:53;;;;;;;;;17.00;15.50;;;;;21.89;53.98;101611.31;5060849;28;45515;-64
2023/09/14 10:05:39;;;;;;;;;20.00;18.25;;;;;21.89;54.20;101614.00;5058803;28;47060;-64
2023/09/14 10:08:14;;;;;;;;;22.25;20.00;;;;;21.90;53.97;101613.06;5052047;28;45264;-64
2023/09/14 10:10:40;;;;;;;;;18.75;18.75;;;;;21.91;54.16;101614.78;5060734;28;45268;-65
2023/09/14 10:13:06;;;;;;;;;23.25;20.50;;;;;21.94;54.55;101609.28;5060737;28;45524;-65
2023/09/14 10:15:32;;;;;;;;;20.00;20.00;;;;;21.97;54.06;101610.94;5060055;28;45732;-65
2023/09/14 10:17:58;;;;;;;;;20.00;18.00;;;;;21.96;54.36;101603.88;5060371;28;45390;-65
2023/09/14 10:20:25;;;;;;;;;20.75;19.50;;;;;21.97;54.39;101606.44;5060850;28;45248;-65
2023/09/14 10:22:51;;;;;;;;;19.25;16.00;;;;;22.00;54.12;101609.00;5059004;28;45249;-65
2023/09/14 10:25:19;;;;;;;;;16.00;15.00;;;;;22.02;53.77;101599.06;5060111;28;45349;-65
2023/09/14 10:27:44;;;;;;;;;22.00;20.25;;;;;22.03;54.32;101606.16;5060128;28;45229;-65
2023/09/14 10:30:20;;;;;;;;;18.75;17.75;;;;;22.03;54.30;101591.94;5060598;28;45190;-65
2023/09/14 10:32:52;;;;;;;;;18.75;17.75;;;;;22.07;53.68;101602.41;5075794;28;45363;-65
2023/09/14 10:35:18;;;;;;;;;20.00;17.75;;;;;22.08;54.29;101601.44;5058662;28;47217;-64
2023/09/14 10:37:45;;;;;;;;;16.00;16.00;;;;;22.12;54.13;101593.28;5060083;28;45240;-64
2023/09/14 10:40:12;;;;;;;;;13.75;12.50;;;;;22.15;54.42;101585.09;5060188;28;45316;-64
2023/09/14 10:42:39;;;;;;;;;15.00;15.00;;;;;22.20;54.31;101586.59;5060074;28;45438;-64
2023/09/14 10:45:08;;;;;;;;;13.50;12.50;;;;;;;;5059830;28;45311;-65
2023/09/14 10:47:37;;;;;;;;;15.75;14.00;;;;;22.42;54.30;101580.19;5058465;28;45392;-65
2023/09/14 10:50:08;;;;;;;;;19.25;14.75;;;;;22.53;54.39;101579.66;5059741;28;45253;-65
2023/09/14 10:52:34;;;;;;;;;17.75;16.00;;;;;22.64;54.52;101574.59;5058132;28;45469;-65
2023/09/14 10:54:59;;;;;;;;;13.25;13.25;;;;;22.82;54.42;101572.75;5059383;28;45926;-64
2023/09/14 10:57:29;;;;;;;;;13.50;11.50;;;;;23.00;54.69;101567.38;5059433;28;45360;-64
2023/09/14 10:59:58;;;;;;;;;16.50;13.00;;;;;23.19;54.80;101561.91;5059940;28;45335;-64
2023/09/14 11:02:39;;;;;;;;;15.00;14.25;;;;;23.50;54.95;101566.44;5059713;28;45188;-65
2023/09/14 11:05:25;;;;;;;;;11.75;10.25;;;;;23.82;55.03;101568.25;5059267;28;46311;-65
2023/09/14 11:07:58;;;;;;;;;12.00;12.00;;;;;24.13;55.14;101555.78;5064510;28;45229;-64